createdAt,value
2019-04-05T00:01:49.758Z,95.60
2019-04-05T00:04:38.590Z,95.80
2019-04-05T00:07:20.954Z,95.80
2019-04-05T00:10:04.005Z,95.90
2019-04-05T00:12:47.842Z,96.00
2019-04-05T00:15:31.171Z,96.00
2019-04-05T00:18:12.550Z,96.00
2019-04-05T00:20:54.146Z,96.10
2019-04-05T00:23:23.594Z,96.20
2019-04-05T00:29:10.213Z,96.30
2019-04-05T00:35:01.075Z,96.40
2019-04-05T00:40:28.303Z,96.70
2019-04-05T00:43:10.021Z,96.70
2019-04-05T00:45:53.270Z,96.70
2019-04-05T00:48:34.626Z,96.80
2019-04-05T00:51:16.618Z,96.90
2019-04-05T00:53:57.916Z,97.00
2019-04-05T00:56:39.110Z,97.20
2019-04-05T00:59:21.150Z,97.20
2019-04-05T01:02:02.778Z,97.30
2019-04-05T01:04:44.028Z,97.30
2019-04-05T01:07:25.453Z,97.50
2019-04-05T01:10:06.745Z,97.50
2019-04-05T01:12:50.901Z,97.60
2019-04-05T01:15:41.119Z,97.80
2019-04-05T01:20:57.322Z,98.00
2019-04-05T01:23:38.652Z,98.10
2019-04-05T01:26:20.462Z,98.10
2019-04-05T01:29:01.914Z,98.20
2019-04-05T01:31:42.838Z,98.20
2019-04-05T01:34:24.694Z,98.40
2019-04-05T01:37:06.194Z,98.40
2019-04-05T01:39:51.282Z,98.30
2019-04-05T01:42:33.160Z,98.40
2019-04-05T01:45:14.132Z,98.50
2019-04-05T01:47:43.614Z,98.50
2019-04-05T01:50:32.646Z,98.70
2019-04-05T01:53:22.173Z,98.70
2019-04-05T01:56:03.719Z,98.60
2019-04-05T02:01:31.623Z,98.80
2019-04-05T02:04:13.448Z,98.90
2019-04-05T02:06:54.862Z,98.90
2019-04-05T02:09:36.352Z,99.00
2019-04-05T02:15:48.926Z,99.20
2019-04-05T02:21:35.642Z,99.20
2019-04-05T02:24:19.102Z,99.60
2019-04-05T02:27:00.314Z,99.30
2019-04-05T02:29:41.940Z,99.30
2019-04-05T02:32:23.200Z,99.40
2019-04-05T02:35:05.523Z,99.40
2019-04-05T02:37:47.652Z,99.40
2019-04-05T02:43:13.217Z,99.50
2019-04-05T02:45:54.819Z,99.50
2019-04-05T02:48:37.928Z,99.50
2019-04-05T02:51:19.026Z,99.60
2019-04-05T02:54:00.410Z,99.60
2019-04-05T02:56:41.737Z,99.60
2019-04-05T02:59:23.557Z,99.70
2019-04-05T03:02:04.888Z,99.60
2019-04-05T03:04:46.277Z,99.70
2019-04-05T03:07:27.744Z,99.60
2019-04-05T03:10:09.249Z,99.80
2019-04-05T03:15:38.161Z,99.80
2019-04-05T03:18:19.493Z,99.90
2019-04-05T03:21:01.280Z,99.90
2019-04-05T03:23:43.336Z,99.90
2019-04-05T03:29:11.794Z,99.90
2019-04-05T03:31:41.543Z,99.90
2019-04-05T03:34:30.408Z,99.90
2019-04-05T03:37:18.965Z,99.90
2019-04-05T03:40:00.641Z,99.90
2019-04-05T03:42:40.874Z,99.90
2019-04-05T03:45:25.165Z,99.90
2019-04-05T03:48:06.924Z,99.90
2019-04-05T03:50:47.953Z,99.90
2019-04-05T03:53:30.891Z,99.90
2019-04-05T03:56:11.095Z,99.90
2019-04-05T03:58:52.558Z,99.90
2019-04-05T04:01:36.827Z,99.90
2019-04-05T04:04:17.965Z,99.90
2019-04-05T04:07:02.662Z,99.90
2019-04-05T04:12:33.932Z,99.90
2019-04-05T04:15:14.861Z,99.90
2019-04-05T04:20:47.470Z,99.90
2019-04-05T04:23:29.299Z,99.90
2019-04-05T04:26:10.842Z,99.90
2019-04-05T04:28:52.675Z,99.90
2019-04-05T04:31:34.800Z,99.90
2019-04-05T04:34:16.662Z,99.90
2019-04-05T04:39:42.336Z,99.90
2019-04-05T04:42:25.487Z,99.90
2019-04-05T04:47:56.662Z,99.90
2019-04-05T04:50:38.009Z,99.90
2019-04-05T04:58:51.861Z,99.90
2019-04-05T05:01:33.551Z,99.90
2019-04-05T05:04:17.844Z,99.90
2019-04-05T05:06:59.590Z,99.90
2019-04-05T05:12:27.857Z,99.90
2019-04-05T05:15:09.435Z,99.90
2019-04-05T05:17:58.450Z,99.90
2019-04-05T05:23:23.260Z,99.90
2019-04-05T05:26:05.680Z,99.90
2019-04-05T05:28:47.521Z,99.90
2019-04-05T05:31:30.931Z,99.90
2019-04-05T05:34:12.538Z,99.90
2019-04-05T05:36:54.208Z,99.90
2019-04-05T05:39:35.447Z,99.90
2019-04-05T05:42:17.934Z,99.90
2019-04-05T05:44:59.714Z,99.90
2019-04-05T05:47:51.157Z,99.90
2019-04-05T05:50:25.391Z,99.90
2019-04-05T05:53:06.503Z,99.90
2019-04-05T05:55:47.669Z,99.90
2019-04-05T06:01:19.582Z,99.90
2019-04-05T06:04:01.035Z,99.90
2019-04-05T06:06:42.409Z,99.90
2019-04-05T06:12:10.426Z,99.90
2019-04-05T06:14:51.688Z,99.90
2019-04-05T06:17:32.419Z,99.90
2019-04-05T06:20:17.049Z,99.90
2019-04-05T06:22:58.778Z,99.80
2019-04-05T06:25:41.408Z,99.80
2019-04-05T06:28:23.140Z,99.70
2019-04-05T06:31:06.450Z,99.60
2019-04-05T06:33:48.197Z,99.60
2019-04-05T06:39:20.693Z,99.30
2019-04-05T06:44:46.298Z,99.00
2019-04-05T06:47:31.087Z,98.90
2019-04-05T06:50:12.389Z,98.80
2019-04-05T06:52:53.798Z,98.60
2019-04-05T06:58:20.192Z,98.30
2019-04-05T07:01:01.319Z,98.20
2019-04-05T07:03:30.625Z,98.10
2019-04-05T07:06:19.510Z,97.80
2019-04-05T07:09:01.276Z,98.00
2019-04-05T07:14:26.602Z,97.90
2019-04-05T07:19:52.859Z,97.80
2019-04-05T07:22:39.076Z,97.80
2019-04-05T07:25:17.229Z,97.60
2019-04-05T07:27:58.853Z,97.40
2019-04-05T07:30:41.166Z,96.90
2019-04-05T07:33:22.214Z,97.10
2019-04-05T07:36:03.725Z,96.90
2019-04-05T07:38:45.323Z,96.80
2019-04-05T07:41:31.693Z,96.80
2019-04-05T07:47:00.081Z,96.10
2019-04-05T07:52:29.904Z,95.10
2019-04-05T07:57:55.292Z,94.90
2019-04-05T08:00:37.180Z,94.70
2019-04-05T08:03:21.270Z,94.30
2019-04-05T08:08:48.188Z,93.20
2019-04-05T08:11:30.536Z,93.20
2019-04-05T08:14:17.749Z,93.00
2019-04-05T08:19:42.003Z,92.70
2019-04-05T08:22:24.094Z,92.40
2019-04-05T08:25:05.797Z,92.40
2019-04-05T08:30:31.925Z,91.80
2019-04-05T08:33:12.525Z,91.40
2019-04-05T08:35:53.951Z,91.00
2019-04-05T08:44:00.344Z,90.60
2019-04-05T08:46:41.649Z,90.00
2019-04-05T08:49:23.193Z,89.00
2019-04-05T08:52:04.794Z,88.10
2019-04-05T08:54:46.225Z,86.70
2019-04-05T08:57:28.550Z,86.40
2019-04-05T09:00:12.155Z,85.80
2019-04-05T09:02:53.877Z,86.70
2019-04-05T09:05:35.217Z,86.40
2019-04-05T09:08:16.961Z,85.80
2019-04-05T09:10:58.693Z,85.40
2019-04-05T09:13:40.488Z,85.10
2019-04-05T09:16:22.510Z,83.20
2019-04-05T09:21:49.122Z,78.80
2019-04-05T09:24:33.576Z,79.40
2019-04-05T09:27:15.374Z,80.30
2019-04-05T09:30:01.525Z,78.20
2019-04-05T09:35:26.746Z,77.50
2019-04-05T09:40:53.601Z,76.40
2019-04-05T09:43:35.293Z,76.40
2019-04-05T09:46:16.695Z,72.20
2019-04-05T09:48:57.986Z,71.60
2019-04-05T09:51:42.732Z,71.60
2019-04-05T09:57:08.332Z,71.40
2019-04-05T09:59:50.749Z,70.90
2019-04-05T10:02:31.984Z,69.50
2019-04-05T10:08:03.080Z,67.70
2019-04-05T10:13:30.086Z,66.30
2019-04-05T10:16:11.818Z,65.70
2019-04-05T10:18:52.929Z,66.30
2019-04-05T10:21:35.136Z,66.40
2019-04-05T10:24:19.055Z,65.90
2019-04-05T10:27:00.613Z,64.20
2019-04-05T10:29:44.620Z,62.60
2019-04-05T10:32:27.236Z,63.40
2019-04-05T10:35:11.733Z,64.20
2019-04-05T10:37:41.140Z,64.20
2019-04-05T10:40:29.744Z,64.60
2019-04-05T10:43:18.997Z,65.30
2019-04-05T10:48:46.464Z,61.80
2019-04-05T10:51:27.357Z,61.70
2019-04-05T10:54:09.382Z,59.70
2019-04-05T10:56:50.628Z,58.20
2019-04-05T10:59:20.479Z,57.80
2019-04-05T11:02:10.093Z,57.70
2019-04-05T11:04:58.771Z,57.80
2019-04-05T11:07:41.333Z,56.80
2019-04-05T11:10:22.594Z,56.50
2019-04-05T11:13:04.701Z,55.90
2019-04-05T11:15:46.187Z,55.70
2019-04-05T11:18:32.916Z,56.10
2019-04-05T11:24:01.414Z,53.80
2019-04-05T11:26:43.106Z,53.90
2019-04-05T11:29:24.585Z,54.20
2019-04-05T11:32:06.065Z,54.60
2019-04-05T11:34:48.349Z,54.40
2019-04-05T11:40:20.549Z,52.80
2019-04-05T11:45:48.649Z,51.50
2019-04-05T11:50:57.404Z,50.10
2019-04-05T11:53:46.471Z,48.00
2019-04-05T11:56:30.795Z,45.00
2019-04-05T12:02:28.485Z,43.20
2019-04-05T12:05:11.393Z,43.10
2019-04-05T12:07:52.858Z,42.00
2019-04-05T12:13:24.023Z,41.20
2019-04-05T12:16:07.247Z,41.40
2019-04-05T12:18:49.626Z,41.40
2019-04-05T12:21:32.584Z,40.20
2019-04-05T12:24:17.866Z,37.10
2019-04-05T12:26:58.206Z,34.20
2019-04-05T12:29:39.420Z,33.60
2019-04-05T12:32:33.535Z,31.60
2019-04-05T12:38:06.830Z,30.50
2019-04-05T12:40:47.317Z,33.00
2019-04-05T12:43:28.108Z,33.80
2019-04-05T12:46:09.433Z,33.80
2019-04-05T12:48:51.396Z,33.10
2019-04-05T12:51:32.836Z,34.10
2019-04-05T12:54:02.383Z,34.40
2019-04-05T12:57:10.391Z,34.40
2019-04-05T12:59:59.114Z,34.50
2019-04-05T13:02:40.206Z,33.20
2019-04-05T13:08:05.393Z,30.10
2019-04-05T13:10:46.842Z,32.20
2019-04-05T13:13:28.212Z,33.90
2019-04-05T13:16:10.672Z,35.50
2019-04-05T13:18:40.357Z,36.60
2019-04-05T13:21:32.058Z,37.80
2019-04-05T13:24:11.836Z,36.30
2019-04-05T13:26:53.080Z,35.50
2019-04-05T13:32:32.655Z,33.30
2019-04-05T13:38:00.742Z,34.00
2019-04-05T13:43:24.123Z,34.30
2019-04-05T13:46:06.396Z,33.20
2019-04-05T13:48:48.554Z,32.80
2019-04-05T13:51:31.912Z,33.10
2019-04-05T13:54:02.346Z,35.00
2019-04-05T13:57:11.418Z,35.20
2019-04-05T13:59:53.486Z,36.40
2019-04-05T14:05:23.940Z,36.90
2019-04-05T14:10:49.933Z,36.90
2019-04-05T14:16:15.760Z,34.80
2019-04-05T14:24:31.111Z,34.00
2019-04-05T14:30:00.577Z,35.70
2019-04-05T14:32:43.675Z,35.40
2019-04-05T14:35:25.221Z,33.90
2019-04-05T14:38:11.718Z,33.20
2019-04-05T14:40:53.232Z,31.50
2019-04-05T14:43:44.577Z,31.90
2019-04-05T14:54:51.006Z,29.90
2019-04-05T14:57:32.604Z,29.70
2019-04-05T15:00:15.745Z,29.90
2019-04-05T15:05:44.089Z,32.30
2019-04-05T15:08:25.414Z,30.80
2019-04-05T15:11:07.187Z,29.10
2019-04-05T15:13:48.969Z,28.70
2019-04-05T15:16:32.961Z,28.40
2019-04-05T15:19:14.112Z,29.10
2019-04-05T15:24:42.229Z,30.50
2019-04-05T15:27:23.933Z,29.90
2019-04-05T15:32:57.777Z,29.00
2019-04-05T15:35:37.676Z,28.80
2019-04-05T15:38:07.356Z,28.90
2019-04-05T15:40:55.992Z,29.30
2019-04-05T15:43:38.455Z,29.60
2019-04-05T15:49:05.170Z,32.20
2019-04-05T15:54:24.176Z,34.20
2019-04-05T15:57:12.899Z,34.00
2019-04-05T15:59:57.011Z,33.70
2019-04-05T16:08:08.341Z,33.80
2019-04-05T16:13:37.005Z,33.80
2019-04-05T16:16:18.723Z,35.00
2019-04-05T16:18:59.454Z,36.20
2019-04-05T16:21:28.982Z,37.30
2019-04-05T16:24:18.957Z,38.40
2019-04-05T16:30:14.500Z,40.20
2019-04-05T16:32:55.586Z,40.60
2019-04-05T16:35:37.287Z,41.10
2019-04-05T16:41:08.208Z,42.70
2019-04-05T16:46:36.136Z,44.30
2019-04-05T16:52:04.613Z,45.30
2019-04-05T16:57:29.067Z,46.00
2019-04-05T17:03:27.419Z,46.90
2019-04-05T17:06:09.072Z,47.10
2019-04-05T17:11:35.985Z,47.60
2019-04-05T17:17:02.578Z,47.90
2019-04-05T17:19:43.824Z,48.10
2019-04-05T17:22:25.701Z,48.50
2019-04-05T17:25:07.589Z,48.70
2019-04-05T17:27:49.843Z,48.90
2019-04-05T17:33:20.274Z,49.70
2019-04-05T17:36:05.797Z,50.20
2019-04-05T17:38:47.064Z,50.50
2019-04-05T17:41:31.829Z,51.00
2019-04-05T17:44:14.106Z,51.80
2019-04-05T17:46:55.455Z,52.80
2019-04-05T17:49:40.008Z,53.30
2019-04-05T17:52:21.813Z,53.60
2019-04-05T17:55:04.592Z,54.10
2019-04-05T17:57:34.617Z,54.50
2019-04-05T18:00:24.571Z,55.00
2019-04-05T18:03:13.357Z,55.20
2019-04-05T18:05:57.910Z,55.30
2019-04-05T18:08:39.437Z,56.50
2019-04-05T18:11:12.416Z,55.80
2019-04-05T18:14:01.791Z,56.40
2019-04-05T18:16:43.516Z,57.10
2019-04-05T18:19:25.916Z,57.90
2019-04-05T18:22:06.973Z,57.70
2019-04-05T18:30:24.510Z,58.80
2019-04-05T18:33:05.673Z,59.30
2019-04-05T18:35:47.085Z,59.90
2019-04-05T18:38:29.710Z,60.80
2019-04-05T18:40:59.256Z,61.80
2019-04-05T18:46:30.398Z,63.40
2019-04-05T18:49:12.250Z,62.80
2019-04-05T18:51:41.698Z,63.90
2019-04-05T18:54:11.142Z,64.80
2019-04-05T18:57:00.250Z,65.10
2019-04-05T18:59:49.052Z,66.00
2019-04-05T19:02:31.629Z,66.50
2019-04-05T19:05:17.083Z,67.50
2019-04-05T19:07:59.078Z,67.90
2019-04-05T19:10:40.703Z,69.20
2019-04-05T19:16:10.247Z,72.60
2019-04-05T19:18:52.107Z,74.40
2019-04-05T19:21:36.123Z,76.10
2019-04-05T19:24:20.242Z,77.20
2019-04-05T19:27:02.625Z,78.70
2019-04-05T19:29:44.472Z,80.20
2019-04-05T19:48:52.838Z,83.60
2019-04-05T19:51:34.080Z,83.10
2019-04-05T19:54:15.625Z,83.20
2019-04-05T19:56:45.004Z,83.10
2019-04-05T19:59:14.324Z,82.80
2019-04-05T20:01:43.794Z,82.70
2019-04-05T20:04:32.207Z,83.10
2019-04-05T20:07:20.755Z,83.00
2019-04-05T20:10:01.836Z,83.10
2019-04-05T20:12:45.868Z,83.20
2019-04-05T20:18:18.321Z,84.10
2019-04-05T20:20:47.808Z,84.60
2019-04-05T20:23:42.967Z,85.00
2019-04-05T20:26:27.479Z,85.30
2019-04-05T20:29:10.021Z,86.00
2019-04-05T20:34:39.196Z,86.40
2019-04-05T20:37:22.190Z,86.70
2019-04-05T20:40:04.270Z,87.20
2019-04-05T20:45:34.945Z,87.90
2019-04-05T20:48:16.180Z,88.20
2019-04-05T20:50:57.730Z,88.60
2019-04-05T20:53:38.546Z,88.70
2019-04-05T20:56:20.539Z,89.20
2019-04-05T20:59:01.227Z,89.60
2019-04-05T21:01:42.298Z,90.00
2019-04-05T21:04:24.820Z,90.00
2019-04-05T21:07:05.897Z,90.20
2019-04-05T21:12:25.788Z,90.60
2019-04-05T21:15:10.613Z,90.60
2019-04-05T21:20:43.367Z,91.00
2019-04-05T21:23:24.843Z,91.00
2019-04-05T21:26:06.528Z,91.20
2019-04-05T21:37:11.499Z,91.20
2019-04-05T21:39:55.979Z,91.30
2019-04-05T21:42:39.690Z,91.40
2019-04-05T21:45:21.012Z,91.60
2019-04-05T21:48:04.649Z,91.70
2019-04-05T21:50:46.119Z,91.90
2019-04-05T21:56:19.044Z,92.30
2019-04-05T21:59:00.375Z,92.30
2019-04-05T22:01:45.099Z,92.40
2019-04-05T22:04:26.787Z,92.40
2019-04-05T22:07:12.227Z,92.60
2019-04-05T22:09:53.603Z,92.70
2019-04-05T22:15:20.820Z,92.70
2019-04-05T22:18:05.463Z,93.00
2019-04-05T22:20:46.671Z,93.10
2019-04-05T22:23:27.778Z,93.20
2019-04-05T22:26:09.328Z,93.10
2019-04-05T22:28:52.339Z,93.20
2019-04-05T22:31:33.781Z,93.20
2019-04-05T22:34:15.460Z,93.20
2019-04-05T22:36:56.781Z,93.20
2019-04-05T22:42:29.519Z,93.50
2019-04-05T22:47:58.326Z,93.70
2019-04-05T22:50:40.052Z,93.90
2019-04-05T22:53:21.686Z,93.90
2019-04-05T22:56:03.638Z,94.10
2019-04-05T22:58:44.613Z,94.30
2019-04-05T23:01:30.238Z,94.60
2019-04-05T23:04:11.890Z,94.70
2019-04-05T23:09:38.580Z,95.20
2019-04-05T23:12:20.197Z,95.10
2019-04-05T23:15:01.518Z,95.20
2019-04-05T23:17:30.893Z,95.20
2019-04-05T23:23:13.115Z,95.80
2019-04-05T23:28:38.664Z,96.50
2019-04-05T23:31:20.567Z,96.30
2019-04-05T23:34:02.171Z,96.40
2019-04-05T23:36:43.627Z,96.30
2019-04-05T23:39:26.627Z,96.40
2019-04-05T23:42:11.141Z,96.40
2019-04-05T23:44:52.676Z,96.60
2019-04-05T23:47:22.243Z,96.40
2019-04-05T23:50:11.187Z,96.60
2019-04-05T23:52:53.270Z,96.90
2019-04-05T23:55:35.981Z,97.10
2019-04-05T23:58:21.466Z,97.30
